createdAt,value
2024-02-02T00:01:58.493Z,2.40
2024-02-02T00:05:27.056Z,2.48
2024-02-02T00:08:55.734Z,2.51
2024-02-02T00:12:24.678Z,2.55
2024-02-02T00:15:53.707Z,2.61
2024-02-02T00:19:22.303Z,2.63
2024-02-02T00:22:34.140Z,2.66
2024-02-02T00:26:02.726Z,2.67
2024-02-02T00:29:31.929Z,2.68
2024-02-02T00:33:00.649Z,2.69
2024-02-02T00:36:29.521Z,2.68
2024-02-02T00:39:58.318Z,2.69
2024-02-02T00:43:26.908Z,2.70
2024-02-02T00:46:55.504Z,2.71
2024-02-02T00:50:24.098Z,2.72
2024-02-02T00:53:52.725Z,2.71
2024-02-02T00:57:21.678Z,2.71
2024-02-02T01:00:50.560Z,2.68
2024-02-02T01:04:20.029Z,2.66
2024-02-02T01:07:48.918Z,2.66
2024-02-02T01:11:17.746Z,2.66
2024-02-02T01:14:46.257Z,2.64
2024-02-02T01:18:15.007Z,2.64
2024-02-02T01:21:44.482Z,2.66
2024-02-02T01:25:13.374Z,2.68
2024-02-02T01:28:41.949Z,2.69
2024-02-02T01:32:10.545Z,2.66
2024-02-02T01:35:39.128Z,2.68
2024-02-02T01:39:07.982Z,2.69
2024-02-02T01:42:36.667Z,2.69
2024-02-02T01:46:05.101Z,2.69
2024-02-02T01:49:33.837Z,2.67
2024-02-02T01:53:04.832Z,2.67
2024-02-02T01:56:33.418Z,2.65
2024-02-02T02:00:02.077Z,2.66
2024-02-02T02:03:30.967Z,2.64
2024-02-02T02:07:00.293Z,2.63
2024-02-02T02:10:29.145Z,2.64
2024-02-02T02:13:57.897Z,2.63
2024-02-02T02:17:26.491Z,2.61
2024-02-02T02:20:55.132Z,2.64
2024-02-02T02:24:23.753Z,2.63
2024-02-02T02:27:52.549Z,2.66
2024-02-02T02:31:21.166Z,2.66
2024-02-02T02:34:49.827Z,2.65
2024-02-02T02:38:18.653Z,2.65
2024-02-02T02:41:47.219Z,2.63
2024-02-02T02:45:13.259Z,2.64
2024-02-02T02:48:42.339Z,2.65
2024-02-02T02:52:11.150Z,2.64
2024-02-02T02:55:39.678Z,2.65
2024-02-02T02:59:07.407Z,2.65
2024-02-02T03:02:35.986Z,2.65
2024-02-02T03:06:04.689Z,2.66
2024-02-02T03:09:33.502Z,2.64
2024-02-02T03:13:02.065Z,2.64
2024-02-02T03:16:31.290Z,2.61
2024-02-02T03:20:01.310Z,2.62
2024-02-02T03:23:30.134Z,2.61
2024-02-02T03:26:58.732Z,2.58
2024-02-02T03:30:27.544Z,2.53
2024-02-02T03:33:56.360Z,2.50
2024-02-02T03:37:25.087Z,2.47
2024-02-02T03:40:53.994Z,2.43
2024-02-02T03:44:22.629Z,2.42
2024-02-02T03:47:51.518Z,2.38
2024-02-02T03:51:20.441Z,2.33
2024-02-02T03:54:51.427Z,2.29
2024-02-02T03:58:20.014Z,2.22
2024-02-02T04:01:48.645Z,2.17
2024-02-02T04:05:17.445Z,2.10
2024-02-02T04:08:46.401Z,2.06
2024-02-02T04:12:15.011Z,2.09
2024-02-02T04:15:44.701Z,2.09
2024-02-02T04:19:15.024Z,2.09
2024-02-02T04:22:43.838Z,2.10
2024-02-02T04:26:12.702Z,2.10
2024-02-02T04:29:41.615Z,2.09
2024-02-02T04:33:10.355Z,2.10
2024-02-02T04:36:32.588Z,2.12
2024-02-02T04:40:01.310Z,2.12
2024-02-02T04:43:29.131Z,2.10
2024-02-02T04:47:00.222Z,2.07
2024-02-02T04:50:28.877Z,2.03
2024-02-02T04:53:58.675Z,1.99
2024-02-02T04:57:27.275Z,1.91
2024-02-02T05:00:56.271Z,1.86
2024-02-02T05:04:25.062Z,1.87
2024-02-02T05:07:53.722Z,1.83
2024-02-02T05:11:22.530Z,1.80
2024-02-02T05:14:51.182Z,1.76
2024-02-02T05:18:20.013Z,1.73
2024-02-02T05:21:47.610Z,1.74
2024-02-02T05:25:16.462Z,1.74
2024-02-02T05:28:45.591Z,1.74
2024-02-02T05:32:14.188Z,1.74
2024-02-02T05:35:42.778Z,1.77
2024-02-02T05:39:11.449Z,1.78
2024-02-02T05:42:40.330Z,1.81
2024-02-02T05:46:09.647Z,1.84
2024-02-02T05:49:38.445Z,1.87
2024-02-02T05:53:07.573Z,1.89
2024-02-02T05:56:36.230Z,1.93
2024-02-02T06:00:05.142Z,1.94
2024-02-02T06:03:34.109Z,1.96
2024-02-02T06:07:03.045Z,1.98
2024-02-02T06:10:32.369Z,2.00
2024-02-02T06:14:00.959Z,2.01
2024-02-02T06:17:30.074Z,2.03
2024-02-02T06:20:58.784Z,2.05
2024-02-02T06:24:27.646Z,2.07
2024-02-02T06:27:56.215Z,2.07
2024-02-02T06:31:24.940Z,2.08
2024-02-02T06:34:53.567Z,2.10
2024-02-02T06:38:22.114Z,2.11
2024-02-02T06:41:50.632Z,2.11
2024-02-02T06:45:19.792Z,2.12
2024-02-02T06:48:59.013Z,2.13
2024-02-02T06:52:27.832Z,2.14
2024-02-02T06:55:56.507Z,2.15
2024-02-02T06:59:31.163Z,2.15
2024-02-02T07:02:59.721Z,2.17
2024-02-02T07:06:29.614Z,2.24
2024-02-02T07:10:01.127Z,2.28
2024-02-02T07:13:31.520Z,2.31
2024-02-02T07:17:09.109Z,2.36
2024-02-02T07:20:40.554Z,2.42
2024-02-02T07:23:48.544Z,2.46
2024-02-02T07:27:28.798Z,2.53
2024-02-02T07:31:06.650Z,2.58
2024-02-02T07:34:41.302Z,2.63
2024-02-02T07:38:21.816Z,2.69
2024-02-02T07:41:32.072Z,2.73
2024-02-02T07:45:00.724Z,2.79
2024-02-02T07:48:29.722Z,2.86
2024-02-02T07:51:58.454Z,2.91
2024-02-02T07:55:26.965Z,2.97
2024-02-02T07:58:55.638Z,2.99
2024-02-02T08:02:24.179Z,2.99
2024-02-02T08:05:52.941Z,3.00
2024-02-02T08:09:21.759Z,2.99
2024-02-02T08:12:50.322Z,3.01
2024-02-02T08:16:18.910Z,3.07
2024-02-02T08:19:47.521Z,3.10
2024-02-02T08:23:16.392Z,3.13
2024-02-02T08:26:45.342Z,3.14
2024-02-02T08:30:14.211Z,3.13
2024-02-02T08:33:42.953Z,3.17
2024-02-02T08:37:11.530Z,3.26
2024-02-02T08:40:40.450Z,3.29
2024-02-02T08:44:09.427Z,3.37
2024-02-02T08:47:38.044Z,3.37
2024-02-02T08:51:07.385Z,3.45
2024-02-02T08:54:36.459Z,3.52
2024-02-02T08:58:08.452Z,3.62
2024-02-02T09:01:43.011Z,3.65
2024-02-02T09:05:19.657Z,3.65
2024-02-02T09:08:51.952Z,3.68
2024-02-02T09:12:20.651Z,3.73
2024-02-02T09:15:49.552Z,3.77
2024-02-02T09:19:18.462Z,3.83
2024-02-02T09:22:47.217Z,3.86
2024-02-02T09:26:12.244Z,3.89
2024-02-02T09:29:41.214Z,3.82
2024-02-02T09:33:10.072Z,3.81
2024-02-02T09:36:39.034Z,3.85
2024-02-02T09:40:13.646Z,3.84
2024-02-02T09:43:48.555Z,3.90
2024-02-02T09:47:23.073Z,3.95
2024-02-02T09:51:10.091Z,4.07
2024-02-02T09:54:41.988Z,4.17
2024-02-02T09:58:14.470Z,4.16
2024-02-02T10:01:55.782Z,4.20
2024-02-02T10:05:45.803Z,4.20
2024-02-02T10:09:29.785Z,4.27
2024-02-02T10:13:16.648Z,4.31
2024-02-02T10:17:03.913Z,4.33
2024-02-02T10:20:53.031Z,4.36
2024-02-02T10:24:42.985Z,4.42
2024-02-02T10:28:29.544Z,4.42
2024-02-02T10:31:56.052Z,4.35
2024-02-02T10:35:39.471Z,4.29
2024-02-02T10:39:10.478Z,4.28
2024-02-02T10:42:48.354Z,4.36
2024-02-02T10:46:32.251Z,4.42
2024-02-02T10:50:24.726Z,4.39
2024-02-02T10:53:54.828Z,4.38
2024-02-02T10:57:23.726Z,4.42
2024-02-02T11:00:55.306Z,4.57
2024-02-02T11:04:30.459Z,4.71
2024-02-02T11:07:57.824Z,4.74
2024-02-02T11:11:32.208Z,4.72
2024-02-02T11:15:12.631Z,4.68
2024-02-02T11:18:21.222Z,4.75
2024-02-02T11:21:54.270Z,4.78
2024-02-02T11:25:34.730Z,4.82
2024-02-02T11:29:06.242Z,4.90
2024-02-02T11:32:56.449Z,4.86
2024-02-02T11:36:32.253Z,4.89
2024-02-02T11:40:05.609Z,4.94
2024-02-02T11:43:30.032Z,5.03
2024-02-02T11:46:58.531Z,5.07
2024-02-02T11:50:27.077Z,5.03
2024-02-02T11:54:04.939Z,5.04
2024-02-02T11:57:42.685Z,5.03
2024-02-02T12:01:27.027Z,5.02
2024-02-02T12:05:01.796Z,5.05
2024-02-02T12:08:42.617Z,5.15
2024-02-02T12:12:13.342Z,5.18
2024-02-02T12:15:45.152Z,5.14
2024-02-02T12:19:05.995Z,5.19
2024-02-02T12:22:35.257Z,5.23
2024-02-02T12:25:59.988Z,5.35
2024-02-02T12:29:28.597Z,5.46
2024-02-02T12:32:57.578Z,5.44
2024-02-02T12:36:26.225Z,5.42
2024-02-02T12:39:55.174Z,5.40
2024-02-02T12:43:23.993Z,5.43
2024-02-02T12:46:52.630Z,5.39
2024-02-02T12:50:14.442Z,5.31
2024-02-02T12:53:43.305Z,5.27
2024-02-02T12:57:11.999Z,5.24
2024-02-02T13:00:40.897Z,5.15
2024-02-02T13:04:08.703Z,5.09
2024-02-02T13:07:38.070Z,5.05
2024-02-02T13:11:15.905Z,5.04
2024-02-02T13:14:44.821Z,5.04
2024-02-02T13:18:13.729Z,5.05
2024-02-02T13:21:45.553Z,5.09
2024-02-02T13:25:26.254Z,5.07
2024-02-02T13:29:01.115Z,5.04
2024-02-02T13:32:29.730Z,5.03
2024-02-02T13:36:01.468Z,5.09
2024-02-02T13:39:29.465Z,5.08
2024-02-02T13:42:58.266Z,5.07
2024-02-02T13:46:26.777Z,5.03
2024-02-02T13:50:04.529Z,5.04
2024-02-02T13:53:33.232Z,4.97
2024-02-02T13:57:05.195Z,4.94
2024-02-02T14:00:36.732Z,4.93
2024-02-02T14:04:11.543Z,4.93
2024-02-02T14:07:40.314Z,4.90
2024-02-02T14:11:12.432Z,4.86
2024-02-02T14:14:41.317Z,4.85
2024-02-02T14:18:10.015Z,4.83
2024-02-02T14:21:38.975Z,4.82
2024-02-02T14:24:54.420Z,4.83
2024-02-02T14:28:23.135Z,4.80
2024-02-02T14:31:51.779Z,4.79
2024-02-02T14:35:20.420Z,4.78
2024-02-02T14:38:49.234Z,4.79
2024-02-02T14:42:17.844Z,4.78
2024-02-02T14:45:36.869Z,4.76
2024-02-02T14:49:09.177Z,4.74
2024-02-02T14:52:37.124Z,4.71
2024-02-02T14:56:05.991Z,4.67
2024-02-02T14:59:24.563Z,4.64
2024-02-02T15:02:28.541Z,4.62
2024-02-02T15:05:57.403Z,4.59
2024-02-02T15:09:26.030Z,4.55
2024-02-02T15:12:54.650Z,4.53
2024-02-02T15:16:23.268Z,4.53
2024-02-02T15:19:52.055Z,4.53
2024-02-02T15:23:20.948Z,4.51
2024-02-02T15:26:39.370Z,4.52
2024-02-02T15:30:08.073Z,4.51
2024-02-02T15:33:37.167Z,4.50
2024-02-02T15:37:08.823Z,4.47
2024-02-02T15:40:37.398Z,4.48
2024-02-02T15:44:06.317Z,4.46
2024-02-02T15:47:35.199Z,4.46
2024-02-02T15:50:55.744Z,4.45
2024-02-02T15:54:24.441Z,4.45
2024-02-02T15:57:53.477Z,4.43
2024-02-02T16:01:22.850Z,4.41
2024-02-02T16:04:51.676Z,4.42
2024-02-02T16:08:20.267Z,4.41
2024-02-02T16:11:51.148Z,4.41
2024-02-02T16:15:21.789Z,4.41
2024-02-02T16:18:50.575Z,4.39
2024-02-02T16:22:19.629Z,4.38
2024-02-02T16:25:50.873Z,4.34
2024-02-02T16:29:19.424Z,4.34
2024-02-02T16:32:48.113Z,4.28
2024-02-02T16:36:16.742Z,4.26
2024-02-02T16:39:46.541Z,4.25
2024-02-02T16:43:15.611Z,4.23
2024-02-02T16:46:37.081Z,4.16
2024-02-02T16:50:05.976Z,4.13
2024-02-02T16:53:34.713Z,4.10
2024-02-02T16:57:03.428Z,4.08
2024-02-02T17:00:25.090Z,4.05
2024-02-02T17:03:53.800Z,4.05
2024-02-02T17:07:23.644Z,4.02
2024-02-02T17:10:52.823Z,4.00
2024-02-02T17:14:21.633Z,3.99
2024-02-02T17:17:50.347Z,4.01
2024-02-02T17:21:19.152Z,3.97
2024-02-02T17:24:48.066Z,3.95
2024-02-02T17:28:16.947Z,3.96
2024-02-02T17:31:45.640Z,3.95
2024-02-02T17:35:05.280Z,3.92
2024-02-02T17:38:37.187Z,3.90
2024-02-02T17:42:05.929Z,3.88
2024-02-02T17:45:28.090Z,3.87
2024-02-02T17:48:56.718Z,3.84
2024-02-02T17:52:25.601Z,3.82
2024-02-02T17:55:44.844Z,3.77
2024-02-02T17:59:13.501Z,3.76
2024-02-02T18:02:42.121Z,3.72
2024-02-02T18:06:11.010Z,3.69
2024-02-02T18:09:39.706Z,3.64
2024-02-02T18:13:14.488Z,3.63
2024-02-02T18:16:43.147Z,3.62
2024-02-02T18:20:04.705Z,3.59
2024-02-02T18:23:12.948Z,3.58
2024-02-02T18:26:34.193Z,3.55
2024-02-02T18:30:02.849Z,3.54
2024-02-02T18:33:31.949Z,3.51
2024-02-02T18:37:02.152Z,3.48
2024-02-02T18:40:30.746Z,3.47
2024-02-02T18:43:59.312Z,3.44
2024-02-02T18:47:28.118Z,3.46
2024-02-02T18:50:56.791Z,3.44
2024-02-02T18:54:25.415Z,3.39
2024-02-02T18:57:53.978Z,3.40
2024-02-02T19:01:22.701Z,3.39
2024-02-02T19:04:51.614Z,3.38
2024-02-02T19:08:20.219Z,3.36
2024-02-02T19:11:41.631Z,3.35
2024-02-02T19:15:10.527Z,3.36
2024-02-02T19:18:39.169Z,3.36
2024-02-02T19:22:07.690Z,3.36
2024-02-02T19:25:36.535Z,3.36
2024-02-02T19:29:05.370Z,3.36
2024-02-02T19:32:34.122Z,3.37
2024-02-02T19:35:53.766Z,3.39
2024-02-02T19:39:22.295Z,3.40
2024-02-02T19:42:51.138Z,3.38
2024-02-02T19:46:20.026Z,3.41
2024-02-02T19:49:48.619Z,3.41
2024-02-02T19:53:17.501Z,3.41
2024-02-02T19:56:46.123Z,3.44
2024-02-02T20:00:15.270Z,3.45
2024-02-02T20:03:44.241Z,3.46
2024-02-02T20:07:13.138Z,3.46
2024-02-02T20:10:44.634Z,3.45
2024-02-02T20:14:13.132Z,3.44
2024-02-02T20:17:41.935Z,3.43
2024-02-02T20:21:12.013Z,3.42
2024-02-02T20:24:40.645Z,3.40
2024-02-02T20:28:07.658Z,3.38
2024-02-02T20:31:36.186Z,3.35
2024-02-02T20:35:04.920Z,3.34
2024-02-02T20:38:33.728Z,3.33
2024-02-02T20:42:05.390Z,3.32
2024-02-02T20:45:34.283Z,3.31
2024-02-02T20:49:02.927Z,3.30
2024-02-02T20:52:31.791Z,3.25
2024-02-02T20:56:00.718Z,3.24
2024-02-02T20:59:29.518Z,3.23
2024-02-02T21:02:58.095Z,3.25
2024-02-02T21:06:26.732Z,3.21
2024-02-02T21:09:54.622Z,3.21
2024-02-02T21:13:23.130Z,3.22
2024-02-02T21:16:51.913Z,3.21
2024-02-02T21:20:20.933Z,3.22
2024-02-02T21:23:49.649Z,3.22
2024-02-02T21:27:18.284Z,3.21
2024-02-02T21:30:47.280Z,3.21
2024-02-02T21:34:16.296Z,3.23
2024-02-02T21:37:45.153Z,3.25
2024-02-02T21:41:14.198Z,3.23
2024-02-02T21:44:43.158Z,3.25
2024-02-02T21:47:54.965Z,3.26
2024-02-02T21:51:23.885Z,3.25
2024-02-02T21:54:53.054Z,3.27
2024-02-02T21:58:14.611Z,3.32
2024-02-02T22:01:43.174Z,3.35
2024-02-02T22:05:13.535Z,3.37
2024-02-02T22:08:42.220Z,3.39
2024-02-02T22:12:10.816Z,3.40
2024-02-02T22:15:29.238Z,3.42
2024-02-02T22:19:00.544Z,3.46
2024-02-02T22:22:30.678Z,3.45
2024-02-02T22:25:59.326Z,3.48
2024-02-02T22:29:27.984Z,3.50
2024-02-02T22:32:56.616Z,3.52
2024-02-02T22:36:25.559Z,3.54
2024-02-02T22:39:57.806Z,3.58
2024-02-02T22:43:26.334Z,3.59
2024-02-02T22:46:54.940Z,3.60
2024-02-02T22:50:23.463Z,3.63
2024-02-02T22:53:52.103Z,3.65
2024-02-02T22:57:21.000Z,3.69
2024-02-02T23:00:49.951Z,3.71
2024-02-02T23:04:19.014Z,3.74
2024-02-02T23:07:47.720Z,3.77
2024-02-02T23:11:17.212Z,3.81
2024-02-02T23:14:45.778Z,3.85
2024-02-02T23:18:14.552Z,3.87
2024-02-02T23:21:43.299Z,3.90
2024-02-02T23:25:11.865Z,3.90
2024-02-02T23:28:40.441Z,3.96
2024-02-02T23:32:09.246Z,3.99
2024-02-02T23:35:37.771Z,4.04
2024-02-02T23:39:06.898Z,4.07
2024-02-02T23:42:35.734Z,4.09
2024-02-02T23:46:05.080Z,4.14
2024-02-02T23:49:33.754Z,4.17
2024-02-02T23:53:02.556Z,4.21
2024-02-02T23:56:33.438Z,4.24
